Adrian, North Dakota
Current Conditions -  °F | °C
As of 9:56 PM on Friday 31 Oct 2014 (Local Time) from KJMS Reporting Station
Clear Clear  
Wind Chill: 18°   Ceiling: Unl
Heat Index: 29°   Visibility: 10mi
Dew Point: 18°   Wind: 15mph
Humidity: 64%   Direction: 150°SSE
Pressure: 30.25"   Gusts: NA
Location:  46.6526°N, 98.6214°W
Report Text: KJMS 010256Z AUTO 15013KT 10SM CLR M02/M08 A3025 RMK AO2 SLP267 T10171078 56022
Loading
Personal Weather Stations






























Interactive Weather Map
Tropical Storm Tracking
New forecast layout! Learn more

10-Day Weather Forecast

Advertisements
Track Severe Weather on mobile